sensor_id;sensor_type;location;lat;lon;timestamp;P1;durP1;ratioP1;P2;durP2;ratioP2
59587;SDS011;45412;54.472;18.464;2023-05-07T00:00:05;17.10;;;7.70;;
59587;SDS011;45412;54.472;18.464;2023-05-07T00:03:17;13.30;;;5.70;;
59587;SDS011;45412;54.472;18.464;2023-05-07T00:06:08;11.00;;;5.40;;
59587;SDS011;45412;54.472;18.464;2023-05-07T00:08:56;14.20;;;6.50;;
59587;SDS011;45412;54.472;18.464;2023-05-07T00:11:47;12.80;;;5.40;;
59587;SDS011;45412;54.472;18.464;2023-05-07T00:14:36;14.30;;;5.10;;
59587;SDS011;45412;54.472;18.464;2023-05-07T00:17:25;11.40;;;5.10;;
59587;SDS011;45412;54.472;18.464;2023-05-07T00:20:13;14.50;;;5.30;;
59587;SDS011;45412;54.472;18.464;2023-05-07T00:23:01;12.30;;;4.50;;
59587;SDS011;45412;54.472;18.464;2023-05-07T00:25:50;11.10;;;4.40;;
59587;SDS011;45412;54.472;18.464;2023-05-07T00:28:38;10.10;;;4.80;;
59587;SDS011;45412;54.472;18.464;2023-05-07T00:31:27;14.70;;;4.50;;
59587;SDS011;45412;54.472;18.464;2023-05-07T00:34:15;15.50;;;5.60;;
59587;SDS011;45412;54.472;18.464;2023-05-07T00:37:03;12.50;;;5.20;;
59587;SDS011;45412;54.472;18.464;2023-05-07T00:39:53;14.00;;;4.60;;
59587;SDS011;45412;54.472;18.464;2023-05-07T00:42:41;11.50;;;5.00;;
59587;SDS011;45412;54.472;18.464;2023-05-07T00:45:29;11.20;;;5.00;;
59587;SDS011;45412;54.472;18.464;2023-05-07T00:48:17;13.00;;;5.00;;
59587;SDS011;45412;54.472;18.464;2023-05-07T00:51:05;12.60;;;4.80;;
59587;SDS011;45412;54.472;18.464;2023-05-07T00:53:54;12.10;;;4.80;;
59587;SDS011;45412;54.472;18.464;2023-05-07T00:56:42;10.40;;;4.20;;
59587;SDS011;45412;54.472;18.464;2023-05-07T00:59:31;8.90;;;4.00;;
59587;SDS011;45412;54.472;18.464;2023-05-07T01:02:20;11.40;;;4.80;;
59587;SDS011;45412;54.472;18.464;2023-05-07T01:05:10;12.30;;;4.80;;
59587;SDS011;45412;54.472;18.464;2023-05-07T01:08:02;10.70;;;4.70;;
59587;SDS011;45412;54.472;18.464;2023-05-07T01:10:53;10.10;;;3.70;;
59587;SDS011;45412;54.472;18.464;2023-05-07T01:13:43;11.60;;;4.30;;
59587;SDS011;45412;54.472;18.464;2023-05-07T01:16:32;11.30;;;4.40;;
59587;SDS011;45412;54.472;18.464;2023-05-07T01:19:21;11.70;;;5.00;;
59587;SDS011;45412;54.472;18.464;2023-05-07T01:22:10;12.40;;;4.40;;
59587;SDS011;45412;54.472;18.464;2023-05-07T01:25:07;9.90;;;4.30;;
59587;SDS011;45412;54.472;18.464;2023-05-07T01:27:57;15.30;;;4.80;;
59587;SDS011;45412;54.472;18.464;2023-05-07T01:30:53;12.20;;;4.90;;
59587;SDS011;45412;54.472;18.464;2023-05-07T01:33:46;10.70;;;4.70;;
59587;SDS011;45412;54.472;18.464;2023-05-07T01:36:37;12.70;;;4.60;;
59587;SDS011;45412;54.472;18.464;2023-05-07T01:39:28;9.20;;;4.00;;
59587;SDS011;45412;54.472;18.464;2023-05-07T01:42:17;9.60;;;4.60;;
59587;SDS011;45412;54.472;18.464;2023-05-07T01:45:06;11.70;;;4.80;;
59587;SDS011;45412;54.472;18.464;2023-05-07T01:47:56;10.90;;;4.90;;
59587;SDS011;45412;54.472;18.464;2023-05-07T01:50:45;12.70;;;4.30;;
59587;SDS011;45412;54.472;18.464;2023-05-07T01:53:38;13.90;;;5.00;;
59587;SDS011;45412;54.472;18.464;2023-05-07T01:56:28;10.10;;;4.30;;
59587;SDS011;45412;54.472;18.464;2023-05-07T01:59:16;10.00;;;4.40;;
59587;SDS011;45412;54.472;18.464;2023-05-07T02:02:04;11.10;;;4.40;;
59587;SDS011;45412;54.472;18.464;2023-05-07T02:04:53;14.90;;;4.50;;
59587;SDS011;45412;54.472;18.464;2023-05-07T02:07:42;11.20;;;4.50;;
59587;SDS011;45412;54.472;18.464;2023-05-07T02:10:30;12.00;;;4.30;;
59587;SDS011;45412;54.472;18.464;2023-05-07T02:13:19;11.30;;;4.50;;
59587;SDS011;45412;54.472;18.464;2023-05-07T02:16:10;12.90;;;4.80;;
59587;SDS011;45412;54.472;18.464;2023-05-07T02:18:59;14.20;;;5.00;;
59587;SDS011;45412;54.472;18.464;2023-05-07T02:21:47;12.90;;;5.10;;
59587;SDS011;45412;54.472;18.464;2023-05-07T02:24:35;12.40;;;5.00;;
59587;SDS011;45412;54.472;18.464;2023-05-07T02:27:24;11.30;;;4.60;;
59587;SDS011;45412;54.472;18.464;2023-05-07T02:30:12;12.70;;;4.70;;
59587;SDS011;45412;54.472;18.464;2023-05-07T02:33:00;12.60;;;4.80;;
59587;SDS011;45412;54.472;18.464;2023-05-07T02:35:48;11.80;;;4.40;;
59587;SDS011;45412;54.472;18.464;2023-05-07T02:38:37;11.50;;;5.20;;
59587;SDS011;45412;54.472;18.464;2023-05-07T02:41:25;11.70;;;4.30;;
59587;SDS011;45412;54.472;18.464;2023-05-07T02:44:15;11.70;;;4.60;;
59587;SDS011;45412;54.472;18.464;2023-05-07T02:47:05;10.80;;;4.90;;
59587;SDS011;45412;54.472;18.464;2023-05-07T02:49:56;12.00;;;5.10;;
59587;SDS011;45412;54.472;18.464;2023-05-07T02:52:45;11.30;;;4.70;;
59587;SDS011;45412;54.472;18.464;2023-05-07T02:55:33;15.60;;;5.10;;
59587;SDS011;45412;54.472;18.464;2023-05-07T02:58:22;14.40;;;4.50;;
59587;SDS011;45412;54.472;18.464;2023-05-07T03:01:10;12.30;;;4.60;;
59587;SDS011;45412;54.472;18.464;2023-05-07T03:04:07;10.10;;;4.20;;
59587;SDS011;45412;54.472;18.464;2023-05-07T03:06:55;12.10;;;5.00;;
59587;SDS011;45412;54.472;18.464;2023-05-07T03:09:43;11.30;;;4.70;;
59587;SDS011;45412;54.472;18.464;2023-05-07T03:12:31;9.80;;;4.60;;
59587;SDS011;45412;54.472;18.464;2023-05-07T03:15:19;10.20;;;4.60;;
59587;SDS011;45412;54.472;18.464;2023-05-07T03:18:07;10.60;;;4.90;;
59587;SDS011;45412;54.472;18.464;2023-05-07T03:20:55;11.40;;;4.70;;
59587;SDS011;45412;54.472;18.464;2023-05-07T03:23:44;14.20;;;5.00;;
59587;SDS011;45412;54.472;18.464;2023-05-07T03:26:32;12.50;;;4.80;;
59587;SDS011;45412;54.472;18.464;2023-05-07T03:29:20;12.40;;;4.70;;
59587;SDS011;45412;54.472;18.464;2023-05-07T03:32:08;10.90;;;4.60;;
59587;SDS011;45412;54.472;18.464;2023-05-07T03:34:56;10.80;;;4.50;;
59587;SDS011;45412;54.472;18.464;2023-05-07T03:37:44;11.60;;;4.60;;
59587;SDS011;45412;54.472;18.464;2023-05-07T03:40:33;11.50;;;4.70;;
59587;SDS011;45412;54.472;18.464;2023-05-07T03:43:23;11.90;;;4.80;;
59587;SDS011;45412;54.472;18.464;2023-05-07T03:46:17;14.40;;;4.80;;
59587;SDS011;45412;54.472;18.464;2023-05-07T03:49:06;12.90;;;4.70;;
59587;SDS011;45412;54.472;18.464;2023-05-07T03:51:54;10.60;;;4.60;;
59587;SDS011;45412;54.472;18.464;2023-05-07T03:54:43;10.90;;;5.00;;
59587;SDS011;45412;54.472;18.464;2023-05-07T03:57:32;12.30;;;4.30;;
59587;SDS011;45412;54.472;18.464;2023-05-07T04:00:20;9.80;;;4.30;;
59587;SDS011;45412;54.472;18.464;2023-05-07T04:03:08;13.50;;;5.00;;
59587;SDS011;45412;54.472;18.464;2023-05-07T04:05:57;12.20;;;4.60;;
59587;SDS011;45412;54.472;18.464;2023-05-07T04:08:45;12.70;;;4.90;;
59587;SDS011;45412;54.472;18.464;2023-05-07T04:11:35;11.40;;;4.40;;
59587;SDS011;45412;54.472;18.464;2023-05-07T04:14:25;10.60;;;4.60;;
59587;SDS011;45412;54.472;18.464;2023-05-07T04:17:13;10.00;;;4.30;;
59587;SDS011;45412;54.472;18.464;2023-05-07T04:20:02;11.30;;;4.80;;
59587;SDS011;45412;54.472;18.464;2023-05-07T04:22:50;12.20;;;4.50;;
59587;SDS011;45412;54.472;18.464;2023-05-07T04:25:38;10.60;;;4.20;;
59587;SDS011;45412;54.472;18.464;2023-05-07T04:28:41;9.60;;;4.40;;
59587;SDS011;45412;54.472;18.464;2023-05-07T04:31:30;10.80;;;4.50;;
59587;SDS011;45412;54.472;18.464;2023-05-07T04:34:20;12.30;;;5.10;;
59587;SDS011;45412;54.472;18.464;2023-05-07T04:37:09;12.50;;;4.40;;
59587;SDS011;45412;54.472;18.464;2023-05-07T04:39:59;12.20;;;4.40;;
59587;SDS011;45412;54.472;18.464;2023-05-07T04:42:48;9.90;;;4.40;;
59587;SDS011;45412;54.472;18.464;2023-05-07T04:45:37;11.10;;;4.10;;
59587;SDS011;45412;54.472;18.464;2023-05-07T04:48:27;10.80;;;4.80;;
59587;SDS011;45412;54.472;18.464;2023-05-07T04:51:17;9.20;;;4.00;;
59587;SDS011;45412;54.472;18.464;2023-05-07T04:54:06;8.40;;;3.40;;
59587;SDS011;45412;54.472;18.464;2023-05-07T04:56:53;7.90;;;3.30;;
59587;SDS011;45412;54.472;18.464;2023-05-07T04:59:42;12.70;;;4.50;;
59587;SDS011;45412;54.472;18.464;2023-05-07T05:02:30;9.30;;;3.30;;
59587;SDS011;45412;54.472;18.464;2023-05-07T05:05:18;8.20;;;3.20;;
59587;SDS011;45412;54.472;18.464;2023-05-07T05:08:06;8.60;;;3.50;;
59587;SDS011;45412;54.472;18.464;2023-05-07T05:10:57;8.40;;;2.70;;
59587;SDS011;45412;54.472;18.464;2023-05-07T05:13:45;8.80;;;3.50;;
59587;SDS011;45412;54.472;18.464;2023-05-07T05:16:38;9.40;;;3.40;;
59587;SDS011;45412;54.472;18.464;2023-05-07T05:19:27;9.70;;;3.80;;
59587;SDS011;45412;54.472;18.464;2023-05-07T05:22:15;9.10;;;3.50;;
59587;SDS011;45412;54.472;18.464;2023-05-07T05:25:04;9.80;;;3.20;;
59587;SDS011;45412;54.472;18.464;2023-05-07T05:27:53;9.60;;;3.30;;
59587;SDS011;45412;54.472;18.464;2023-05-07T05:30:41;9.90;;;3.30;;
59587;SDS011;45412;54.472;18.464;2023-05-07T05:33:29;9.20;;;2.90;;
59587;SDS011;45412;54.472;18.464;2023-05-07T05:36:21;10.90;;;3.10;;
59587;SDS011;45412;54.472;18.464;2023-05-07T05:39:10;8.50;;;3.30;;
59587;SDS011;45412;54.472;18.464;2023-05-07T05:41:57;7.80;;;2.80;;
59587;SDS011;45412;54.472;18.464;2023-05-07T05:44:45;6.70;;;2.70;;
59587;SDS011;45412;54.472;18.464;2023-05-07T05:47:33;8.10;;;2.60;;
59587;SDS011;45412;54.472;18.464;2023-05-07T05:50:22;6.90;;;2.70;;
59587;SDS011;45412;54.472;18.464;2023-05-07T05:53:10;7.30;;;2.60;;
59587;SDS011;45412;54.472;18.464;2023-05-07T05:55:59;7.60;;;2.90;;
59587;SDS011;45412;54.472;18.464;2023-05-07T05:58:47;9.50;;;3.00;;
59587;SDS011;45412;54.472;18.464;2023-05-07T06:01:35;7.20;;;2.80;;
59587;SDS011;45412;54.472;18.464;2023-05-07T06:04:24;7.50;;;2.80;;
59587;SDS011;45412;54.472;18.464;2023-05-07T06:07:12;8.10;;;3.30;;
59587;SDS011;45412;54.472;18.464;2023-05-07T06:10:01;7.60;;;2.60;;
59587;SDS011;45412;54.472;18.464;2023-05-07T06:12:50;7.30;;;2.50;;
59587;SDS011;45412;54.472;18.464;2023-05-07T06:15:38;8.30;;;2.30;;
59587;SDS011;45412;54.472;18.464;2023-05-07T06:18:29;9.60;;;3.30;;
59587;SDS011;45412;54.472;18.464;2023-05-07T06:21:17;9.00;;;3.40;;
59587;SDS011;45412;54.472;18.464;2023-05-07T06:24:06;7.10;;;2.50;;
59587;SDS011;45412;54.472;18.464;2023-05-07T06:26:55;9.50;;;3.50;;
59587;SDS011;45412;54.472;18.464;2023-05-07T06:29:43;8.40;;;2.80;;
59587;SDS011;45412;54.472;18.464;2023-05-07T06:32:33;8.30;;;2.50;;
59587;SDS011;45412;54.472;18.464;2023-05-07T06:35:21;8.00;;;2.40;;
59587;SDS011;45412;54.472;18.464;2023-05-07T06:38:09;10.50;;;2.80;;
59587;SDS011;45412;54.472;18.464;2023-05-07T06:40:59;6.80;;;2.50;;
59587;SDS011;45412;54.472;18.464;2023-05-07T06:43:47;8.50;;;2.80;;
59587;SDS011;45412;54.472;18.464;2023-05-07T06:46:56;7.80;;;2.50;;
59587;SDS011;45412;54.472;18.464;2023-05-07T06:49:45;6.50;;;2.40;;
59587;SDS011;45412;54.472;18.464;2023-05-07T06:52:36;8.50;;;2.60;;
59587;SDS011;45412;54.472;18.464;2023-05-07T06:55:25;6.90;;;2.60;;
59587;SDS011;45412;54.472;18.464;2023-05-07T06:58:14;8.00;;;2.40;;
59587;SDS011;45412;54.472;18.464;2023-05-07T07:01:05;8.00;;;3.40;;
59587;SDS011;45412;54.472;18.464;2023-05-07T07:03:55;8.00;;;2.50;;
59587;SDS011;45412;54.472;18.464;2023-05-07T07:06:44;7.90;;;2.30;;
59587;SDS011;45412;54.472;18.464;2023-05-07T07:09:33;6.60;;;2.20;;
59587;SDS011;45412;54.472;18.464;2023-05-07T07:12:22;6.50;;;2.30;;
59587;SDS011;45412;54.472;18.464;2023-05-07T07:15:16;7.20;;;2.30;;
59587;SDS011;45412;54.472;18.464;2023-05-07T07:18:06;6.30;;;2.10;;
59587;SDS011;45412;54.472;18.464;2023-05-07T07:20:54;6.10;;;2.00;;
59587;SDS011;45412;54.472;18.464;2023-05-07T07:23:43;6.70;;;2.00;;
59587;SDS011;45412;54.472;18.464;2023-05-07T07:26:32;7.60;;;2.10;;
59587;SDS011;45412;54.472;18.464;2023-05-07T07:29:20;8.40;;;2.60;;
59587;SDS011;45412;54.472;18.464;2023-05-07T07:32:08;6.70;;;2.40;;
59587;SDS011;45412;54.472;18.464;2023-05-07T07:34:57;6.90;;;2.50;;
59587;SDS011;45412;54.472;18.464;2023-05-07T07:37:45;6.40;;;2.00;;
59587;SDS011;45412;54.472;18.464;2023-05-07T07:40:35;6.50;;;2.10;;
59587;SDS011;45412;54.472;18.464;2023-05-07T07:43:24;7.30;;;2.40;;
59587;SDS011;45412;54.472;18.464;2023-05-07T07:46:13;7.50;;;2.30;;
59587;SDS011;45412;54.472;18.464;2023-05-07T07:49:03;7.20;;;2.30;;
59587;SDS011;45412;54.472;18.464;2023-05-07T07:51:52;6.50;;;2.10;;
59587;SDS011;45412;54.472;18.464;2023-05-07T07:54:42;6.60;;;2.20;;
59587;SDS011;45412;54.472;18.464;2023-05-07T07:57:30;6.10;;;1.90;;
59587;SDS011;45412;54.472;18.464;2023-05-07T08:00:18;7.00;;;1.70;;
59587;SDS011;45412;54.472;18.464;2023-05-07T08:03:10;8.90;;;1.70;;
59587;SDS011;45412;54.472;18.464;2023-05-07T08:06:01;6.90;;;1.90;;
59587;SDS011;45412;54.472;18.464;2023-05-07T08:08:51;8.50;;;1.80;;
59587;SDS011;45412;54.472;18.464;2023-05-07T08:11:39;7.30;;;2.00;;
59587;SDS011;45412;54.472;18.464;2023-05-07T08:14:28;9.30;;;2.00;;
59587;SDS011;45412;54.472;18.464;2023-05-07T08:17:17;8.00;;;2.90;;
59587;SDS011;45412;54.472;18.464;2023-05-07T08:20:07;6.10;;;2.00;;
59587;SDS011;45412;54.472;18.464;2023-05-07T08:22:56;8.30;;;3.30;;
59587;SDS011;45412;54.472;18.464;2023-05-07T08:25:44;6.20;;;1.80;;
59587;SDS011;45412;54.472;18.464;2023-05-07T08:28:32;7.00;;;2.10;;
59587;SDS011;45412;54.472;18.464;2023-05-07T08:31:20;6.30;;;1.80;;
59587;SDS011;45412;54.472;18.464;2023-05-07T08:34:09;6.10;;;1.90;;
59587;SDS011;45412;54.472;18.464;2023-05-07T08:36:59;7.10;;;2.10;;
59587;SDS011;45412;54.472;18.464;2023-05-07T08:39:49;6.40;;;1.90;;
59587;SDS011;45412;54.472;18.464;2023-05-07T08:42:40;5.80;;;2.00;;
59587;SDS011;45412;54.472;18.464;2023-05-07T08:45:30;7.00;;;2.20;;
59587;SDS011;45412;54.472;18.464;2023-05-07T08:48:22;7.60;;;2.00;;
59587;SDS011;45412;54.472;18.464;2023-05-07T08:51:20;6.40;;;1.70;;
59587;SDS011;45412;54.472;18.464;2023-05-07T08:54:09;5.90;;;1.80;;
59587;SDS011;45412;54.472;18.464;2023-05-07T08:56:59;8.20;;;2.10;;
59587;SDS011;45412;54.472;18.464;2023-05-07T08:59:47;5.80;;;1.90;;
59587;SDS011;45412;54.472;18.464;2023-05-07T09:02:37;8.40;;;2.10;;
59587;SDS011;45412;54.472;18.464;2023-05-07T09:05:26;7.00;;;2.00;;
59587;SDS011;45412;54.472;18.464;2023-05-07T09:08:14;6.70;;;2.00;;
59587;SDS011;45412;54.472;18.464;2023-05-07T09:11:06;7.00;;;2.10;;
59587;SDS011;45412;54.472;18.464;2023-05-07T09:13:57;7.90;;;2.00;;
59587;SDS011;45412;54.472;18.464;2023-05-07T09:16:47;6.60;;;2.00;;
59587;SDS011;45412;54.472;18.464;2023-05-07T09:19:37;7.30;;;2.10;;
59587;SDS011;45412;54.472;18.464;2023-05-07T09:22:25;6.80;;;1.80;;
59587;SDS011;45412;54.472;18.464;2023-05-07T09:25:27;5.80;;;2.00;;
59587;SDS011;45412;54.472;18.464;2023-05-07T09:28:22;6.50;;;2.00;;
59587;SDS011;45412;54.472;18.464;2023-05-07T09:31:11;6.10;;;1.70;;
59587;SDS011;45412;54.472;18.464;2023-05-07T09:34:00;7.80;;;2.20;;
59587;SDS011;45412;54.472;18.464;2023-05-07T09:36:53;6.30;;;2.40;;
59587;SDS011;45412;54.472;18.464;2023-05-07T09:39:45;5.70;;;2.10;;
59587;SDS011;45412;54.472;18.464;2023-05-07T09:42:37;5.90;;;2.10;;
59587;SDS011;45412;54.472;18.464;2023-05-07T09:45:27;7.60;;;2.00;;
59587;SDS011;45412;54.472;18.464;2023-05-07T09:48:17;7.40;;;2.00;;
59587;SDS011;45412;54.472;18.464;2023-05-07T09:51:30;6.60;;;2.20;;
59587;SDS011;45412;54.472;18.464;2023-05-07T09:54:29;5.90;;;2.00;;
59587;SDS011;45412;54.472;18.464;2023-05-07T09:57:19;5.90;;;2.20;;
59587;SDS011;45412;54.472;18.464;2023-05-07T10:00:12;5.80;;;1.90;;
59587;SDS011;45412;54.472;18.464;2023-05-07T10:03:08;7.30;;;2.10;;
59587;SDS011;45412;54.472;18.464;2023-05-07T10:06:04;6.50;;;2.40;;
59587;SDS011;45412;54.472;18.464;2023-05-07T10:08:54;6.90;;;1.60;;
59587;SDS011;45412;54.472;18.464;2023-05-07T10:11:44;7.50;;;2.00;;
59587;SDS011;45412;54.472;18.464;2023-05-07T10:14:34;6.70;;;2.10;;
59587;SDS011;45412;54.472;18.464;2023-05-07T10:17:23;6.80;;;2.00;;
59587;SDS011;45412;54.472;18.464;2023-05-07T10:20:13;7.00;;;2.30;;
59587;SDS011;45412;54.472;18.464;2023-05-07T10:23:04;8.10;;;2.40;;
59587;SDS011;45412;54.472;18.464;2023-05-07T10:25:58;7.50;;;2.00;;
59587;SDS011;45412;54.472;18.464;2023-05-07T10:28:53;6.30;;;2.20;;
59587;SDS011;45412;54.472;18.464;2023-05-07T10:35:16;6.70;;;2.10;;
59587;SDS011;45412;54.472;18.464;2023-05-07T10:38:14;6.80;;;2.00;;
59587;SDS011;45412;54.472;18.464;2023-05-07T10:41:04;6.30;;;2.10;;
59587;SDS011;45412;54.472;18.464;2023-05-07T10:43:55;6.70;;;2.20;;
59587;SDS011;45412;54.472;18.464;2023-05-07T10:47:06;7.60;;;2.10;;
59587;SDS011;45412;54.472;18.464;2023-05-07T11:02:17;6.50;;;2.20;;
59587;SDS011;45412;54.472;18.464;2023-05-07T11:05:22;6.70;;;1.80;;
59587;SDS011;45412;54.472;18.464;2023-05-07T11:11:49;6.00;;;1.80;;
59587;SDS011;45412;54.472;18.464;2023-05-07T11:15:14;7.20;;;1.80;;
59587;SDS011;45412;54.472;18.464;2023-05-07T11:18:05;6.40;;;2.00;;
59587;SDS011;45412;54.472;18.464;2023-05-07T11:20:58;6.40;;;2.00;;
59587;SDS011;45412;54.472;18.464;2023-05-07T11:26:47;6.10;;;1.80;;
59587;SDS011;45412;54.472;18.464;2023-05-07T11:29:38;5.90;;;2.10;;
59587;SDS011;45412;54.472;18.464;2023-05-07T11:32:34;5.90;;;2.00;;
59587;SDS011;45412;54.472;18.464;2023-05-07T11:35:25;6.70;;;2.20;;
59587;SDS011;45412;54.472;18.464;2023-05-07T11:38:19;8.30;;;2.10;;
59587;SDS011;45412;54.472;18.464;2023-05-07T11:41:07;8.10;;;2.10;;
59587;SDS011;45412;54.472;18.464;2023-05-07T11:43:58;8.00;;;2.20;;
59587;SDS011;45412;54.472;18.464;2023-05-07T11:46:47;7.90;;;2.50;;
59587;SDS011;45412;54.472;18.464;2023-05-07T11:49:39;6.10;;;1.90;;
59587;SDS011;45412;54.472;18.464;2023-05-07T11:52:30;6.80;;;2.10;;
59587;SDS011;45412;54.472;18.464;2023-05-07T11:55:18;6.40;;;2.20;;
59587;SDS011;45412;54.472;18.464;2023-05-07T11:58:10;6.00;;;2.10;;
59587;SDS011;45412;54.472;18.464;2023-05-07T12:01:00;7.60;;;2.70;;
59587;SDS011;45412;54.472;18.464;2023-05-07T12:03:48;7.60;;;2.50;;
59587;SDS011;45412;54.472;18.464;2023-05-07T12:06:39;6.20;;;2.00;;
59587;SDS011;45412;54.472;18.464;2023-05-07T12:09:27;6.60;;;2.10;;
59587;SDS011;45412;54.472;18.464;2023-05-07T12:12:16;7.00;;;2.60;;
59587;SDS011;45412;54.472;18.464;2023-05-07T12:15:06;7.50;;;2.50;;
59587;SDS011;45412;54.472;18.464;2023-05-07T12:17:55;7.00;;;2.30;;
59587;SDS011;45412;54.472;18.464;2023-05-07T12:20:44;7.90;;;2.70;;
59587;SDS011;45412;54.472;18.464;2023-05-07T12:23:36;7.80;;;2.50;;
59587;SDS011;45412;54.472;18.464;2023-05-07T12:26:26;8.30;;;2.70;;
59587;SDS011;45412;54.472;18.464;2023-05-07T12:29:14;7.40;;;2.60;;
59587;SDS011;45412;54.472;18.464;2023-05-07T12:32:04;11.00;;;3.10;;
59587;SDS011;45412;54.472;18.464;2023-05-07T12:34:57;6.90;;;2.50;;
59587;SDS011;45412;54.472;18.464;2023-05-07T12:37:55;7.00;;;2.40;;
59587;SDS011;45412;54.472;18.464;2023-05-07T12:40:50;6.80;;;2.30;;
59587;SDS011;45412;54.472;18.464;2023-05-07T12:43:45;8.00;;;2.30;;
59587;SDS011;45412;54.472;18.464;2023-05-07T12:46:38;8.00;;;2.40;;
59587;SDS011;45412;54.472;18.464;2023-05-07T12:49:27;9.00;;;2.90;;
59587;SDS011;45412;54.472;18.464;2023-05-07T12:52:16;6.80;;;2.50;;
59587;SDS011;45412;54.472;18.464;2023-05-07T12:55:05;8.40;;;2.30;;
59587;SDS011;45412;54.472;18.464;2023-05-07T12:57:56;8.30;;;2.40;;
59587;SDS011;45412;54.472;18.464;2023-05-07T13:00:49;8.90;;;2.20;;
59587;SDS011;45412;54.472;18.464;2023-05-07T13:03:39;7.20;;;2.50;;
59587;SDS011;45412;54.472;18.464;2023-05-07T13:06:27;6.80;;;2.50;;
59587;SDS011;45412;54.472;18.464;2023-05-07T13:09:16;7.10;;;2.20;;
59587;SDS011;45412;54.472;18.464;2023-05-07T13:12:05;6.00;;;2.40;;
59587;SDS011;45412;54.472;18.464;2023-05-07T13:14:55;7.90;;;2.30;;
59587;SDS011;45412;54.472;18.464;2023-05-07T13:17:43;7.60;;;2.70;;
59587;SDS011;45412;54.472;18.464;2023-05-07T13:20:32;7.30;;;2.60;;
59587;SDS011;45412;54.472;18.464;2023-05-07T13:23:20;6.90;;;2.60;;
59587;SDS011;45412;54.472;18.464;2023-05-07T13:26:08;6.60;;;2.70;;
59587;SDS011;45412;54.472;18.464;2023-05-07T13:29:12;8.10;;;2.90;;
59587;SDS011;45412;54.472;18.464;2023-05-07T13:32:01;8.40;;;2.60;;
59587;SDS011;45412;54.472;18.464;2023-05-07T13:34:51;7.30;;;2.80;;
59587;SDS011;45412;54.472;18.464;2023-05-07T13:37:39;7.50;;;3.00;;
59587;SDS011;45412;54.472;18.464;2023-05-07T13:40:33;8.90;;;3.00;;
59587;SDS011;45412;54.472;18.464;2023-05-07T13:43:21;9.50;;;2.80;;
59587;SDS011;45412;54.472;18.464;2023-05-07T13:46:13;7.00;;;2.90;;
59587;SDS011;45412;54.472;18.464;2023-05-07T13:49:01;10.20;;;3.00;;
59587;SDS011;45412;54.472;18.464;2023-05-07T13:51:50;7.50;;;3.00;;
59587;SDS011;45412;54.472;18.464;2023-05-07T13:54:38;8.70;;;3.00;;
59587;SDS011;45412;54.472;18.464;2023-05-07T13:57:27;8.80;;;3.10;;
59587;SDS011;45412;54.472;18.464;2023-05-07T14:00:15;9.30;;;3.00;;
59587;SDS011;45412;54.472;18.464;2023-05-07T14:03:04;7.80;;;3.00;;
59587;SDS011;45412;54.472;18.464;2023-05-07T14:05:54;8.90;;;2.80;;
59587;SDS011;45412;54.472;18.464;2023-05-07T14:08:42;8.30;;;3.10;;
59587;SDS011;45412;54.472;18.464;2023-05-07T14:11:30;7.00;;;2.20;;
59587;SDS011;45412;54.472;18.464;2023-05-07T14:14:20;7.70;;;3.10;;
59587;SDS011;45412;54.472;18.464;2023-05-07T14:17:09;7.80;;;2.90;;
59587;SDS011;45412;54.472;18.464;2023-05-07T14:19:57;7.80;;;2.90;;
59587;SDS011;45412;54.472;18.464;2023-05-07T14:22:46;7.00;;;2.70;;
59587;SDS011;45412;54.472;18.464;2023-05-07T14:25:35;7.80;;;2.70;;
59587;SDS011;45412;54.472;18.464;2023-05-07T14:28:25;7.80;;;2.80;;
59587;SDS011;45412;54.472;18.464;2023-05-07T14:31:13;9.00;;;3.70;;
59587;SDS011;45412;54.472;18.464;2023-05-07T14:34:02;7.80;;;2.80;;
59587;SDS011;45412;54.472;18.464;2023-05-07T14:36:54;9.70;;;3.10;;
59587;SDS011;45412;54.472;18.464;2023-05-07T14:39:47;7.40;;;2.90;;
59587;SDS011;45412;54.472;18.464;2023-05-07T14:42:37;8.40;;;3.50;;
59587;SDS011;45412;54.472;18.464;2023-05-07T14:45:26;8.80;;;3.10;;
59587;SDS011;45412;54.472;18.464;2023-05-07T14:48:14;8.00;;;3.20;;
59587;SDS011;45412;54.472;18.464;2023-05-07T14:51:03;9.30;;;3.30;;
59587;SDS011;45412;54.472;18.464;2023-05-07T14:53:52;8.90;;;3.30;;
59587;SDS011;45412;54.472;18.464;2023-05-07T14:56:40;9.20;;;3.50;;
59587;SDS011;45412;54.472;18.464;2023-05-07T14:59:29;7.60;;;2.90;;
59587;SDS011;45412;54.472;18.464;2023-05-07T15:02:18;10.00;;;3.70;;
59587;SDS011;45412;54.472;18.464;2023-05-07T15:05:08;10.70;;;3.70;;
59587;SDS011;45412;54.472;18.464;2023-05-07T15:07:56;9.20;;;3.40;;
59587;SDS011;45412;54.472;18.464;2023-05-07T15:10:45;9.30;;;3.50;;
59587;SDS011;45412;54.472;18.464;2023-05-07T15:13:35;11.40;;;3.80;;
59587;SDS011;45412;54.472;18.464;2023-05-07T15:16:25;8.70;;;3.20;;
59587;SDS011;45412;54.472;18.464;2023-05-07T15:19:16;8.80;;;3.40;;
59587;SDS011;45412;54.472;18.464;2023-05-07T15:22:08;9.20;;;3.30;;
59587;SDS011;45412;54.472;18.464;2023-05-07T15:24:56;7.90;;;2.80;;
59587;SDS011;45412;54.472;18.464;2023-05-07T15:27:46;10.00;;;3.10;;
59587;SDS011;45412;54.472;18.464;2023-05-07T15:30:35;8.70;;;3.10;;
59587;SDS011;45412;54.472;18.464;2023-05-07T15:33:24;8.10;;;3.10;;
59587;SDS011;45412;54.472;18.464;2023-05-07T15:36:12;8.00;;;2.70;;
59587;SDS011;45412;54.472;18.464;2023-05-07T15:39:02;9.40;;;3.00;;
59587;SDS011;45412;54.472;18.464;2023-05-07T15:41:53;7.50;;;2.60;;
59587;SDS011;45412;54.472;18.464;2023-05-07T15:44:45;8.00;;;2.90;;
59587;SDS011;45412;54.472;18.464;2023-05-07T15:47:34;8.10;;;2.70;;
59587;SDS011;45412;54.472;18.464;2023-05-07T15:50:26;8.30;;;2.80;;
59587;SDS011;45412;54.472;18.464;2023-05-07T15:53:16;9.50;;;3.10;;
59587;SDS011;45412;54.472;18.464;2023-05-07T15:56:04;8.20;;;3.20;;
59587;SDS011;45412;54.472;18.464;2023-05-07T15:58:53;10.50;;;3.30;;
59587;SDS011;45412;54.472;18.464;2023-05-07T16:01:41;7.30;;;2.60;;
59587;SDS011;45412;54.472;18.464;2023-05-07T16:04:33;8.50;;;2.30;;
59587;SDS011;45412;54.472;18.464;2023-05-07T16:07:22;7.80;;;2.60;;
59587;SDS011;45412;54.472;18.464;2023-05-07T16:10:10;7.00;;;2.40;;
59587;SDS011;45412;54.472;18.464;2023-05-07T16:12:58;7.00;;;2.60;;
59587;SDS011;45412;54.472;18.464;2023-05-07T16:15:47;8.70;;;2.90;;
59587;SDS011;45412;54.472;18.464;2023-05-07T16:18:36;6.20;;;2.30;;
59587;SDS011;45412;54.472;18.464;2023-05-07T16:21:24;8.60;;;2.00;;
59587;SDS011;45412;54.472;18.464;2023-05-07T16:24:13;7.50;;;2.50;;
59587;SDS011;45412;54.472;18.464;2023-05-07T16:27:01;9.20;;;2.30;;
59587;SDS011;45412;54.472;18.464;2023-05-07T16:29:50;7.30;;;2.40;;
59587;SDS011;45412;54.472;18.464;2023-05-07T16:32:38;7.00;;;2.50;;
59587;SDS011;45412;54.472;18.464;2023-05-07T16:35:27;7.20;;;2.30;;
59587;SDS011;45412;54.472;18.464;2023-05-07T16:38:15;6.60;;;2.60;;
59587;SDS011;45412;54.472;18.464;2023-05-07T16:41:04;8.40;;;2.90;;
59587;SDS011;45412;54.472;18.464;2023-05-07T16:43:54;8.90;;;3.50;;
59587;SDS011;45412;54.472;18.464;2023-05-07T16:46:44;7.50;;;2.90;;
59587;SDS011;45412;54.472;18.464;2023-05-07T16:49:32;6.90;;;2.70;;
59587;SDS011;45412;54.472;18.464;2023-05-07T16:52:21;7.80;;;2.70;;
59587;SDS011;45412;54.472;18.464;2023-05-07T16:55:09;7.90;;;2.60;;
59587;SDS011;45412;54.472;18.464;2023-05-07T16:57:59;7.60;;;2.50;;
59587;SDS011;45412;54.472;18.464;2023-05-07T17:00:49;7.60;;;2.80;;
59587;SDS011;45412;54.472;18.464;2023-05-07T17:03:38;6.80;;;2.60;;
59587;SDS011;45412;54.472;18.464;2023-05-07T17:06:27;7.20;;;2.70;;